createdAt,value
2022-12-24T00:01:22.082Z,29.52
2022-12-24T00:03:50.928Z,30.35
2022-12-24T00:06:23.902Z,24.83
2022-12-24T00:08:52.880Z,28.55
2022-12-24T00:11:21.254Z,29.00
2022-12-24T00:13:50.054Z,29.98
2022-12-24T00:16:19.618Z,26.83
2022-12-24T00:18:47.277Z,31.38
2022-12-24T00:21:16.128Z,28.23
2022-12-24T00:23:43.769Z,30.10
2022-12-24T00:26:12.168Z,28.10
2022-12-24T00:28:39.688Z,27.08
2022-12-24T00:31:13.039Z,30.13
2022-12-24T00:33:43.031Z,31.17
2022-12-24T00:36:11.486Z,33.50
2022-12-24T00:38:46.601Z,36.13
2022-12-24T00:41:29.428Z,33.80
2022-12-24T00:44:06.529Z,33.70
2022-12-24T00:46:35.535Z,33.60
2022-12-24T00:49:03.372Z,37.60
2022-12-24T00:51:30.924Z,32.10
2022-12-24T00:54:05.202Z,36.38
2022-12-24T00:56:32.848Z,31.88
2022-12-24T00:59:00.390Z,32.85
2022-12-24T01:01:28.132Z,33.97
2022-12-24T01:04:15.721Z,33.97
2022-12-24T01:06:43.723Z,35.22
2022-12-24T01:09:11.169Z,31.40
2022-12-24T01:11:39.434Z,31.73
2022-12-24T01:14:07.872Z,37.30
2022-12-24T01:16:35.340Z,37.47
2022-12-24T01:19:02.658Z,32.72
2022-12-24T01:21:30.199Z,31.63
2022-12-24T01:23:57.690Z,30.73
2022-12-24T01:26:26.121Z,31.50
2022-12-24T01:28:53.935Z,29.83
2022-12-24T01:31:21.644Z,32.58
2022-12-24T01:33:50.371Z,33.97
2022-12-24T01:36:20.064Z,33.33
2022-12-24T01:38:47.184Z,34.60
2022-12-24T01:41:40.694Z,37.55
2022-12-24T01:44:31.527Z,37.05
2022-12-24T01:47:14.762Z,42.15
2022-12-24T01:49:52.788Z,43.30
2022-12-24T01:52:30.525Z,39.53
2022-12-24T01:55:08.290Z,44.45
2022-12-24T01:57:47.040Z,44.08
2022-12-24T02:00:16.347Z,45.22
2022-12-24T02:02:48.208Z,47.42
2022-12-24T02:05:34.695Z,53.22
2022-12-24T02:08:04.065Z,43.67
2022-12-24T02:10:37.567Z,48.60
2022-12-24T02:15:54.106Z,46.83
2022-12-24T02:18:34.658Z,44.88
2022-12-24T02:21:36.520Z,47.53
2022-12-24T02:24:25.221Z,48.55
2022-12-24T02:27:30.406Z,48.05
2022-12-24T02:30:01.700Z,51.22
2022-12-24T02:32:34.555Z,52.33
2022-12-24T02:35:10.471Z,46.42
2022-12-24T02:37:44.840Z,46.08
2022-12-24T02:40:37.176Z,46.35
2022-12-24T02:43:12.146Z,46.17
2022-12-24T02:45:40.990Z,46.33
2022-12-24T02:48:10.714Z,45.42
2022-12-24T02:50:39.906Z,48.85
2022-12-24T02:53:11.088Z,47.80
2022-12-24T02:56:01.200Z,43.30
2022-12-24T02:58:38.514Z,46.40
2022-12-24T03:01:32.147Z,41.58
2022-12-24T03:04:40.772Z,42.50
2022-12-24T03:07:25.370Z,39.55
2022-12-24T03:10:15.065Z,61.17
2022-12-24T03:12:47.370Z,73.07
2022-12-24T03:15:25.732Z,39.08
2022-12-24T03:18:02.828Z,38.35
2022-12-24T03:20:42.444Z,35.03
2022-12-24T03:23:11.979Z,32.17
2022-12-24T03:25:42.582Z,31.25
2022-12-24T03:28:13.244Z,29.60
2022-12-24T03:30:48.667Z,30.00
2022-12-24T03:33:17.492Z,26.25
2022-12-24T03:35:45.868Z,25.90
2022-12-24T03:38:13.003Z,26.63
2022-12-24T03:40:40.455Z,26.38
2022-12-24T03:43:07.979Z,27.05
2022-12-24T03:45:35.521Z,25.95
2022-12-24T03:48:02.743Z,24.25
2022-12-24T03:50:30.486Z,24.83
2022-12-24T03:53:03.800Z,25.75
2022-12-24T03:55:34.547Z,25.15
2022-12-24T03:58:02.199Z,23.65
2022-12-24T04:00:29.424Z,23.23
2022-12-24T04:02:56.974Z,23.27
2022-12-24T04:05:24.304Z,24.33
2022-12-24T04:07:51.806Z,23.23
2022-12-24T04:10:19.422Z,21.55
2022-12-24T04:12:46.666Z,21.13
2022-12-24T04:15:14.115Z,19.92
2022-12-24T04:17:42.644Z,22.13
2022-12-24T04:20:13.437Z,20.92
2022-12-24T04:22:42.922Z,20.33
2022-12-24T04:25:10.783Z,20.95
2022-12-24T04:27:40.070Z,18.98
2022-12-24T04:30:08.106Z,15.50
2022-12-24T04:32:35.604Z,15.82
2022-12-24T04:35:03.122Z,15.07
2022-12-24T04:37:30.402Z,15.25
2022-12-24T04:39:57.921Z,13.48
2022-12-24T04:42:25.379Z,12.05
2022-12-24T04:44:52.761Z,12.80
2022-12-24T04:47:20.288Z,13.68
2022-12-24T04:49:47.649Z,11.48
2022-12-24T04:52:14.693Z,14.13
2022-12-24T04:54:42.224Z,10.30
2022-12-24T04:57:11.686Z,10.25
2022-12-24T04:59:39.283Z,10.15
2022-12-24T05:02:07.820Z,12.18
2022-12-24T05:04:42.350Z,11.65
2022-12-24T05:07:09.813Z,9.57
2022-12-24T05:09:37.308Z,9.00
2022-12-24T05:12:05.411Z,10.38
2022-12-24T05:14:34.842Z,10.07
2022-12-24T05:17:02.037Z,12.55
2022-12-24T05:19:34.425Z,8.60
2022-12-24T05:22:20.247Z,8.00
2022-12-24T05:25:08.548Z,7.70
2022-12-24T05:27:36.423Z,8.20
2022-12-24T05:30:04.212Z,7.50
2022-12-24T05:32:31.646Z,5.13
2022-12-24T05:34:59.235Z,5.38
2022-12-24T05:37:26.698Z,5.40
2022-12-24T05:39:54.078Z,4.45
2022-12-24T05:42:23.259Z,5.63
2022-12-24T05:44:50.681Z,6.63
2022-12-24T05:47:18.135Z,5.20
2022-12-24T05:49:45.715Z,6.25
2022-12-24T05:52:12.773Z,7.32
2022-12-24T05:54:39.993Z,7.93
2022-12-24T05:57:08.437Z,4.30
2022-12-24T05:59:36.039Z,4.85
2022-12-24T06:02:04.560Z,7.60
2022-12-24T06:04:31.926Z,6.05
2022-12-24T06:06:59.293Z,6.43
2022-12-24T06:09:27.789Z,4.57
2022-12-24T06:11:55.204Z,4.60
2022-12-24T06:14:22.379Z,3.63
2022-12-24T06:16:49.911Z,5.68
2022-12-24T06:19:17.156Z,3.65
2022-12-24T06:21:44.596Z,3.90
2022-12-24T06:24:12.076Z,3.88
2022-12-24T06:26:39.478Z,3.75
2022-12-24T06:29:06.940Z,3.88
2022-12-24T06:31:34.456Z,4.43
2022-12-24T06:34:02.938Z,5.28
2022-12-24T06:36:30.929Z,4.68
2022-12-24T06:38:58.457Z,3.85
2022-12-24T06:41:25.852Z,4.20
2022-12-24T06:43:54.211Z,4.65
2022-12-24T06:46:23.352Z,5.90
2022-12-24T06:48:51.069Z,5.43
2022-12-24T06:51:20.229Z,4.35
2022-12-24T06:53:53.863Z,4.82
2022-12-24T06:58:51.058Z,8.60
2022-12-24T07:01:21.344Z,9.88
2022-12-24T07:03:48.999Z,8.38
2022-12-24T07:06:31.350Z,9.18
2022-12-24T07:08:58.938Z,6.90
2022-12-24T07:11:27.460Z,7.25
2022-12-24T07:13:54.639Z,12.27
2022-12-24T07:16:22.254Z,8.52
2022-12-24T07:18:50.593Z,6.22
2022-12-24T07:21:18.059Z,26.17
2022-12-24T07:23:45.470Z,12.70
2022-12-24T07:26:12.988Z,27.42
2022-12-24T07:28:40.449Z,7.55
2022-12-24T07:31:08.898Z,27.30
2022-12-24T07:33:36.385Z,36.70
2022-12-24T07:36:09.384Z,19.20
2022-12-24T07:38:38.574Z,7.25
2022-12-24T07:41:06.040Z,11.98
2022-12-24T07:43:34.853Z,9.30
2022-12-24T07:46:02.739Z,7.95
2022-12-24T07:48:31.855Z,11.00
2022-12-24T07:51:00.200Z,6.55
2022-12-24T07:53:28.978Z,7.93
2022-12-24T07:55:59.151Z,5.55
2022-12-24T07:58:32.497Z,8.63
2022-12-24T08:01:00.876Z,7.97
2022-12-24T08:03:30.441Z,5.53
2022-12-24T08:05:58.887Z,4.68
2022-12-24T08:08:26.477Z,4.95
2022-12-24T08:10:53.995Z,4.97
2022-12-24T08:13:21.247Z,10.07
2022-12-24T08:15:49.789Z,5.88
2022-12-24T08:18:17.212Z,4.18
2022-12-24T08:20:44.643Z,4.43
2022-12-24T08:23:12.213Z,3.45
2022-12-24T08:25:46.883Z,4.88
2022-12-24T08:28:16.157Z,5.18
2022-12-24T08:30:44.081Z,4.88
2022-12-24T08:33:12.525Z,3.92
2022-12-24T08:35:40.529Z,4.00
2022-12-24T08:38:08.159Z,3.92
2022-12-24T08:40:35.493Z,5.60
2022-12-24T08:43:03.252Z,4.25
2022-12-24T08:45:39.648Z,3.72
2022-12-24T08:48:09.944Z,4.72
2022-12-24T08:50:40.991Z,7.57
2022-12-24T08:53:09.700Z,5.63
2022-12-24T08:55:39.790Z,5.05
2022-12-24T08:58:07.451Z,5.93
2022-12-24T09:00:34.962Z,6.38
2022-12-24T09:03:02.562Z,8.85
2022-12-24T09:05:31.682Z,6.60
2022-12-24T09:08:02.097Z,8.07
2022-12-24T09:10:29.236Z,7.65
2022-12-24T09:12:57.765Z,7.53
2022-12-24T09:15:25.126Z,7.70
2022-12-24T09:17:52.645Z,5.95
2022-12-24T09:20:20.037Z,8.95
2022-12-24T09:22:47.533Z,7.22
2022-12-24T09:25:15.071Z,6.72
2022-12-24T09:27:43.413Z,6.93
2022-12-24T09:30:11.265Z,7.18
2022-12-24T09:32:44.595Z,7.00
2022-12-24T09:35:11.990Z,5.63
2022-12-24T09:37:39.437Z,7.82
2022-12-24T09:40:07.312Z,7.80
2022-12-24T09:42:52.263Z,8.70
2022-12-24T09:45:42.422Z,6.50
2022-12-24T09:48:25.446Z,7.72
2022-12-24T09:51:12.033Z,5.55
2022-12-24T09:53:53.325Z,8.18
2022-12-24T09:56:26.050Z,5.40
2022-12-24T09:58:57.483Z,8.55
2022-12-24T10:01:25.404Z,9.25
2022-12-24T10:03:56.275Z,10.00
2022-12-24T10:06:58.905Z,9.43
2022-12-24T10:09:57.595Z,8.25
2022-12-24T10:12:44.431Z,6.80
2022-12-24T10:16:11.361Z,11.85
2022-12-24T10:18:59.145Z,11.30
2022-12-24T10:21:36.604Z,8.48
2022-12-24T10:24:10.643Z,7.55
2022-12-24T10:27:07.274Z,9.90
2022-12-24T10:29:44.198Z,8.90
2022-12-24T10:32:21.593Z,7.82
2022-12-24T10:35:02.471Z,8.93
2022-12-24T10:37:32.026Z,8.88
2022-12-24T10:40:01.381Z,35.33
2022-12-24T10:42:51.649Z,28.80
2022-12-24T10:45:24.267Z,45.72
2022-12-24T10:47:57.858Z,15.93
2022-12-24T10:53:28.777Z,13.00
2022-12-24T10:56:12.566Z,11.48
2022-12-24T10:58:51.458Z,9.18
2022-12-24T11:01:18.844Z,7.97
2022-12-24T11:03:46.166Z,21.27
2022-12-24T11:06:21.453Z,8.35
2022-12-24T11:08:49.876Z,9.82
2022-12-24T11:11:25.384Z,10.52
2022-12-24T11:13:59.857Z,11.35
2022-12-24T11:16:38.179Z,11.45
2022-12-24T11:19:16.206Z,9.95
2022-12-24T11:21:43.471Z,10.45
2022-12-24T11:24:13.770Z,9.60
2022-12-24T11:26:44.445Z,10.50
2022-12-24T11:29:28.686Z,6.03
2022-12-24T11:32:18.998Z,5.70
2022-12-24T11:34:46.200Z,9.35
2022-12-24T11:37:24.762Z,9.93
2022-12-24T11:39:58.629Z,8.63
2022-12-24T11:42:34.055Z,12.32
2022-12-24T11:45:04.625Z,16.95
2022-12-24T11:47:39.271Z,10.80
2022-12-24T11:50:32.461Z,12.25
2022-12-24T11:53:05.178Z,12.50
2022-12-24T11:55:53.805Z,18.00
2022-12-24T11:58:43.055Z,19.13
2022-12-24T12:01:22.744Z,18.65
2022-12-24T12:03:58.034Z,43.63
2022-12-24T12:06:42.377Z,28.13
2022-12-24T12:09:31.663Z,17.77
2022-12-24T12:12:14.681Z,18.38
2022-12-24T12:15:14.152Z,13.30
2022-12-24T12:17:41.562Z,13.57
2022-12-24T12:20:24.778Z,15.15
2022-12-24T12:23:20.849Z,24.08
2022-12-24T12:25:57.925Z,34.58
2022-12-24T12:28:50.122Z,31.40
2022-12-24T12:31:26.812Z,27.17
2022-12-24T12:34:03.297Z,19.00
2022-12-24T12:36:38.210Z,36.33
2022-12-24T12:39:06.857Z,50.88
2022-12-24T12:41:57.844Z,46.78
2022-12-24T12:45:01.817Z,30.95
2022-12-24T12:48:01.551Z,19.83
2022-12-24T12:50:52.084Z,19.48
2022-12-24T12:53:57.407Z,17.42
2022-12-24T12:56:32.657Z,14.45
2022-12-24T12:59:22.119Z,22.10
2022-12-24T13:02:10.229Z,16.83
2022-12-24T13:04:50.127Z,24.15
2022-12-24T13:07:37.799Z,21.95
2022-12-24T13:10:34.340Z,19.65
2022-12-24T13:13:33.096Z,21.77
2022-12-24T13:16:03.632Z,14.77
2022-12-24T13:18:50.566Z,20.05
2022-12-24T13:21:22.128Z,26.02
2022-12-24T13:23:50.477Z,23.35
2022-12-24T13:26:18.992Z,25.77
2022-12-24T13:28:46.568Z,24.42
2022-12-24T13:31:24.916Z,32.67
2022-12-24T13:34:02.438Z,25.45
2022-12-24T13:37:04.940Z,14.82
2022-12-24T13:40:01.035Z,10.45
2022-12-24T13:42:59.409Z,18.83
2022-12-24T13:45:30.242Z,27.85
2022-12-24T13:48:06.687Z,26.35
2022-12-24T13:50:41.676Z,18.55
2022-12-24T13:53:38.714Z,14.77
2022-12-24T13:56:16.999Z,19.48
2022-12-24T13:58:48.683Z,16.83
2022-12-24T14:01:23.271Z,19.08
2022-12-24T14:03:58.395Z,18.80
2022-12-24T14:06:40.759Z,20.92
2022-12-24T14:09:20.450Z,19.23
2022-12-24T14:11:54.465Z,20.08
2022-12-24T14:14:33.862Z,16.00
2022-12-24T14:17:19.998Z,20.17
2022-12-24T14:19:52.105Z,18.50
2022-12-24T14:22:30.631Z,14.70
2022-12-24T14:25:18.028Z,11.88
2022-12-24T14:28:17.719Z,10.98
2022-12-24T14:30:45.187Z,12.00
2022-12-24T14:33:35.275Z,9.52
2022-12-24T14:36:04.864Z,10.57
2022-12-24T14:38:33.909Z,8.43
2022-12-24T14:41:22.638Z,12.15
2022-12-24T14:44:17.120Z,14.93
2022-12-24T14:47:07.515Z,16.98
2022-12-24T14:49:59.119Z,11.07
2022-12-24T14:53:07.201Z,8.00
2022-12-24T14:55:50.345Z,10.20
2022-12-24T14:58:47.772Z,9.30
2022-12-24T15:01:29.668Z,11.38
2022-12-24T15:04:14.309Z,11.73
2022-12-24T15:06:53.509Z,8.75
2022-12-24T15:09:26.603Z,8.35
2022-12-24T15:12:00.607Z,11.32
2022-12-24T15:14:30.648Z,13.75
2022-12-24T15:17:04.510Z,15.18
2022-12-24T15:19:39.113Z,36.25
2022-12-24T15:22:21.825Z,12.40
2022-12-24T15:24:49.432Z,13.13
2022-12-24T15:27:22.719Z,11.60
2022-12-24T15:29:56.911Z,10.73
2022-12-24T15:32:25.158Z,14.07
2022-12-24T15:34:56.097Z,7.50
2022-12-24T15:37:39.992Z,11.20
2022-12-24T15:42:42.957Z,31.00
2022-12-24T15:45:28.397Z,28.27
2022-12-24T15:48:00.904Z,39.40
2022-12-24T15:50:34.065Z,37.63
2022-12-24T15:53:19.504Z,36.50
2022-12-24T15:56:10.397Z,27.63
2022-12-24T15:58:42.080Z,15.27
2022-12-24T16:01:10.461Z,26.52
2022-12-24T16:03:40.851Z,24.52
2022-12-24T16:06:11.681Z,19.45
2022-12-24T16:08:43.715Z,35.35
2022-12-24T16:11:25.554Z,53.17
2022-12-24T16:14:30.598Z,63.83
2022-12-24T16:16:58.958Z,64.93
2022-12-24T16:19:37.675Z,26.83
2022-12-24T16:22:25.209Z,24.13
2022-12-24T16:24:55.948Z,19.65
2022-12-24T16:27:23.461Z,25.77
2022-12-24T16:29:51.760Z,28.55
2022-12-24T16:32:38.361Z,39.92
2022-12-24T16:35:14.227Z,44.85
2022-12-24T16:37:41.827Z,39.72
2022-12-24T16:40:19.405Z,33.20
2022-12-24T16:43:08.144Z,29.05
2022-12-24T16:45:36.932Z,36.90
2022-12-24T16:48:07.676Z,29.80
2022-12-24T16:50:35.810Z,30.13
2022-12-24T16:53:02.999Z,22.33
2022-12-24T16:55:31.516Z,15.15
2022-12-24T16:57:59.754Z,44.55
2022-12-24T17:00:33.553Z,31.05
2022-12-24T17:03:00.916Z,46.97
2022-12-24T17:05:30.417Z,45.90
2022-12-24T17:08:01.771Z,42.80
2022-12-24T17:10:29.850Z,45.20
2022-12-24T17:12:58.252Z,38.05
2022-12-24T17:15:25.508Z,280.58
2022-12-24T17:17:54.815Z,71.93
2022-12-24T17:20:24.419Z,28.15
2022-12-24T17:22:52.340Z,23.63
2022-12-24T17:25:19.999Z,29.55
2022-12-24T17:27:53.451Z,31.60
2022-12-24T17:30:20.988Z,37.17
2022-12-24T17:32:50.256Z,35.28
2022-12-24T17:35:19.903Z,34.92
2022-12-24T17:37:53.491Z,42.28
2022-12-24T17:42:48.929Z,35.67
2022-12-24T17:45:16.479Z,27.27
2022-12-24T17:47:46.149Z,21.45
2022-12-24T17:50:13.831Z,20.05
2022-12-24T17:52:41.003Z,19.02
2022-12-24T17:55:09.557Z,14.70
2022-12-24T17:57:37.269Z,14.32
2022-12-24T18:00:05.448Z,10.88
2022-12-24T18:02:32.924Z,13.38
2022-12-24T18:05:00.629Z,17.55
2022-12-24T18:07:30.173Z,16.42
2022-12-24T18:09:58.588Z,15.27
2022-12-24T18:12:26.193Z,12.38
2022-12-24T18:14:54.640Z,11.57
2022-12-24T18:17:22.305Z,12.02
2022-12-24T18:19:50.099Z,11.63
2022-12-24T18:22:17.466Z,11.77
2022-12-24T18:24:45.918Z,14.82
2022-12-24T18:27:25.766Z,17.15
2022-12-24T18:29:53.272Z,19.00
2022-12-24T18:32:26.864Z,27.00
2022-12-24T18:37:21.289Z,61.50
2022-12-24T18:39:50.667Z,118.97
2022-12-24T18:42:20.191Z,61.55
2022-12-24T18:44:47.415Z,45.08
2022-12-24T18:47:15.239Z,35.50
2022-12-24T18:49:42.523Z,27.33
2022-12-24T18:52:11.603Z,24.52
2022-12-24T18:54:40.528Z,29.75
2022-12-24T18:57:08.005Z,24.70
2022-12-24T18:59:38.242Z,22.80
2022-12-24T19:02:05.699Z,23.75
2022-12-24T19:04:33.484Z,21.65
2022-12-24T19:07:00.859Z,19.73
2022-12-24T19:09:28.245Z,19.90
2022-12-24T19:11:55.695Z,20.95
2022-12-24T19:14:23.174Z,24.52
2022-12-24T19:16:51.651Z,26.00
2022-12-24T19:19:24.285Z,25.75
2022-12-24T19:21:52.180Z,26.33
2022-12-24T19:24:20.697Z,23.25
2022-12-24T19:26:49.014Z,24.17
2022-12-24T19:29:16.587Z,21.73
2022-12-24T19:31:47.556Z,24.83
2022-12-24T19:34:15.196Z,22.40
2022-12-24T19:36:42.690Z,18.58
2022-12-24T19:39:10.059Z,15.50
2022-12-24T19:41:37.691Z,19.13
2022-12-24T19:44:06.048Z,17.77
2022-12-24T19:46:35.146Z,21.52
2022-12-24T19:49:14.649Z,26.60
2022-12-24T19:51:41.896Z,20.92
2022-12-24T19:54:18.764Z,24.10
2022-12-24T19:56:46.982Z,23.58
2022-12-24T19:59:15.356Z,29.02
2022-12-24T20:01:43.212Z,24.73
2022-12-24T20:04:10.908Z,25.77
2022-12-24T20:06:38.225Z,18.00
2022-12-24T20:09:09.041Z,18.63
2022-12-24T20:11:36.833Z,15.02
2022-12-24T20:14:07.249Z,17.10
2022-12-24T20:16:36.110Z,17.65
2022-12-24T20:19:06.914Z,14.10
2022-12-24T20:21:34.756Z,17.30
2022-12-24T20:24:02.341Z,13.55
2022-12-24T20:26:30.659Z,15.73
2022-12-24T20:29:06.580Z,15.70
2022-12-24T20:31:35.155Z,12.20
2022-12-24T20:34:07.663Z,14.75
2022-12-24T20:36:37.500Z,16.38
2022-12-24T20:39:07.452Z,15.95
2022-12-24T20:41:34.826Z,20.45
2022-12-24T20:44:05.083Z,17.35
2022-12-24T20:46:34.227Z,15.38
2022-12-24T20:49:01.481Z,20.63
2022-12-24T20:51:29.521Z,21.00
2022-12-24T20:53:59.378Z,25.98
2022-12-24T20:56:28.862Z,44.92
2022-12-24T20:59:02.605Z,60.33
2022-12-24T21:01:30.593Z,42.03
2022-12-24T21:04:00.684Z,25.15
2022-12-24T21:06:28.014Z,15.70
2022-12-24T21:08:55.222Z,13.10
2022-12-24T21:11:41.738Z,15.05
2022-12-24T21:14:09.973Z,17.27
2022-12-24T21:16:38.535Z,14.30
2022-12-24T21:19:07.084Z,14.05
2022-12-24T21:21:35.071Z,11.73
2022-12-24T21:24:03.669Z,11.25
2022-12-24T21:26:32.137Z,11.32
2022-12-24T21:28:59.961Z,14.80
2022-12-24T21:31:28.607Z,12.00
2022-12-24T21:33:58.131Z,15.38
2022-12-24T21:36:25.672Z,12.70
2022-12-24T21:38:54.449Z,13.45
2022-12-24T21:41:26.257Z,11.98
2022-12-24T21:44:02.134Z,11.38
2022-12-24T21:46:30.744Z,10.65
2022-12-24T21:49:16.679Z,12.43
2022-12-24T21:51:45.246Z,18.20
2022-12-24T21:54:25.632Z,19.05
2022-12-24T21:57:13.111Z,18.88
2022-12-24T21:59:40.790Z,14.63
2022-12-24T22:02:11.506Z,14.32
2022-12-24T22:04:38.763Z,13.15
2022-12-24T22:07:26.185Z,13.18
2022-12-24T22:10:12.073Z,15.50
2022-12-24T22:12:39.427Z,12.65
2022-12-24T22:15:07.473Z,13.10
2022-12-24T22:17:34.840Z,11.82
2022-12-24T22:20:02.451Z,12.18
2022-12-24T22:22:30.526Z,16.05
2022-12-24T22:24:57.886Z,21.20
2022-12-24T22:27:25.306Z,17.08
2022-12-24T22:29:54.791Z,15.48
2022-12-24T22:32:23.855Z,16.60
2022-12-24T22:34:51.343Z,14.32
2022-12-24T22:37:18.987Z,14.40
2022-12-24T22:39:46.364Z,18.92
2022-12-24T22:42:13.927Z,16.52
2022-12-24T22:44:49.111Z,12.98
2022-12-24T22:47:16.534Z,12.75
2022-12-24T22:49:44.968Z,13.18
2022-12-24T22:52:12.075Z,15.77
2022-12-24T22:54:41.600Z,12.85
2022-12-24T22:57:09.994Z,19.27
2022-12-24T22:59:40.223Z,13.95
2022-12-24T23:02:08.466Z,21.65
2022-12-24T23:04:39.140Z,17.50
2022-12-24T23:07:11.443Z,55.60
2022-12-24T23:09:39.837Z,9.27
2022-12-24T23:12:08.145Z,31.33
2022-12-24T23:14:55.081Z,28.58
2022-12-24T23:17:22.908Z,36.08
2022-12-24T23:19:50.514Z,27.73
2022-12-24T23:22:18.969Z,63.92
2022-12-24T23:24:46.514Z,67.28
2022-12-24T23:27:13.987Z,46.65
2022-12-24T23:29:41.506Z,79.22
2022-12-24T23:32:08.971Z,71.70
2022-12-24T23:34:42.413Z,24.33
2022-12-24T23:37:09.954Z,54.03
2022-12-24T23:39:39.399Z,100.25
2022-12-24T23:42:06.836Z,36.75
2022-12-24T23:44:35.423Z,85.47
2022-12-24T23:47:02.926Z,94.90
2022-12-24T23:49:32.393Z,72.40
2022-12-24T23:51:59.562Z,20.02
2022-12-24T23:54:27.742Z,15.70
2022-12-24T23:56:56.137Z,18.08
2022-12-24T23:59:23.689Z,19.30
